createdAt,value
2019-05-05T01:54:47.926Z,1.60
2019-05-05T04:33:51.026Z,2.20
2019-05-05T04:38:58.355Z,2.83
2019-05-05T04:45:01.080Z,2.70
2019-05-05T04:50:37.740Z,3.03
2019-05-05T04:56:04.228Z,2.47
2019-05-05T05:01:31.178Z,2.60
2019-05-05T05:06:31.122Z,2.43
2019-05-05T05:11:47.400Z,3.07
2019-05-05T05:16:48.357Z,2.33
2019-05-05T05:22:01.333Z,2.67
2019-05-05T05:27:10.199Z,2.87
2019-05-05T05:32:50.685Z,2.77
2019-05-05T05:38:46.047Z,2.53
2019-05-05T05:44:27.999Z,3.00
2019-05-05T05:50:26.336Z,2.50
2019-05-05T05:56:04.395Z,2.77
2019-05-05T06:01:04.456Z,3.50
2019-05-05T06:06:46.187Z,3.00
2019-05-05T06:11:50.267Z,2.93
2019-05-05T06:16:46.607Z,2.33
2019-05-05T06:22:08.322Z,2.80
2019-05-05T06:27:06.343Z,2.40
2019-05-05T06:32:04.028Z,3.13
2019-05-05T06:36:59.747Z,2.63
2019-05-05T06:42:07.295Z,3.40
2019-05-05T06:47:08.527Z,3.50
2019-05-05T06:52:05.281Z,2.87
2019-05-05T06:57:01.620Z,2.40
2019-05-05T07:02:04.028Z,2.67
2019-05-05T07:06:58.228Z,3.47
2019-05-05T07:11:54.391Z,2.77
2019-05-05T07:17:18.317Z,2.73
2019-05-05T07:22:17.286Z,2.90
2019-05-05T07:27:13.902Z,2.53
2019-05-05T07:32:09.540Z,2.37
2019-05-05T07:37:05.611Z,2.43
2019-05-05T07:42:01.683Z,3.20
2019-05-05T07:46:58.916Z,2.33
2019-05-05T07:51:54.949Z,2.67
2019-05-05T07:56:50.841Z,2.33
2019-05-05T08:01:46.924Z,2.23
2019-05-05T08:06:44.506Z,2.30
2019-05-05T08:11:40.339Z,1.83
2019-05-05T08:16:55.061Z,2.57
2019-05-05T08:21:51.041Z,2.10
2019-05-05T08:27:01.024Z,1.77
2019-05-05T08:32:10.386Z,1.70
2019-05-05T08:37:06.349Z,2.40
2019-05-05T08:42:04.133Z,1.90
2019-05-05T08:46:59.810Z,1.93
2019-05-05T08:51:55.759Z,1.97
2019-05-05T08:56:51.620Z,1.87
2019-05-05T09:01:47.445Z,2.00
2019-05-05T09:06:43.860Z,1.67
2019-05-05T09:11:40.365Z,1.67
2019-05-05T09:16:39.515Z,1.90
2019-05-05T09:21:35.343Z,1.63
2019-05-05T09:26:51.022Z,1.93
2019-05-05T09:31:46.962Z,1.30
2019-05-05T09:36:50.375Z,1.97
2019-05-05T09:41:48.636Z,0.90
2019-05-05T09:46:49.551Z,1.60
2019-05-05T09:51:48.441Z,1.53
2019-05-05T09:56:44.621Z,1.43
2019-05-05T10:01:40.885Z,1.57
2019-05-05T10:06:37.300Z,1.53
2019-05-05T10:11:34.954Z,1.23
2019-05-05T10:16:31.371Z,1.40
2019-05-05T10:21:28.394Z,1.87
2019-05-05T10:26:24.625Z,2.53
2019-05-05T10:31:24.293Z,1.27
2019-05-05T10:36:25.838Z,1.27
2019-05-05T10:41:23.803Z,2.03
2019-05-05T10:46:19.948Z,1.20
2019-05-05T10:51:18.878Z,1.33
2019-05-05T10:56:14.830Z,1.03
2019-05-05T11:01:15.014Z,1.30
2019-05-05T11:06:13.603Z,0.90
2019-05-05T11:11:13.825Z,1.03
2019-05-05T11:16:24.780Z,1.10
2019-05-05T11:21:34.169Z,0.80
2019-05-05T11:26:45.071Z,1.17
2019-05-05T11:31:40.504Z,4.10
2019-05-05T11:36:54.433Z,1.20
2019-05-05T11:42:43.776Z,1.00
2019-05-05T11:47:44.391Z,0.87
2019-05-05T11:52:40.971Z,1.00
2019-05-05T11:57:57.695Z,1.73
2019-05-05T12:03:29.914Z,1.03
2019-05-05T12:08:26.301Z,1.80
2019-05-05T12:13:22.684Z,2.70
2019-05-05T12:18:25.091Z,1.50
2019-05-05T12:23:39.789Z,0.97
2019-05-05T12:28:51.770Z,0.90
2019-05-05T12:34:05.388Z,1.30
2019-05-05T12:39:05.081Z,1.63
2019-05-05T12:44:34.079Z,1.10
2019-05-05T12:49:30.220Z,3.47
2019-05-05T12:54:33.535Z,2.47
2019-05-05T12:59:31.060Z,1.10
2019-05-05T13:04:37.791Z,1.63
2019-05-05T13:15:44.313Z,5.07
2019-05-05T13:21:15.471Z,1.80
2019-05-05T13:26:23.572Z,2.07
2019-05-05T13:31:21.776Z,1.03
2019-05-05T13:36:20.665Z,1.40
2019-05-05T13:41:20.051Z,0.83
2019-05-05T13:46:27.447Z,0.90
2019-05-05T13:51:56.914Z,0.90
2019-05-05T13:56:54.634Z,0.50
2019-05-05T14:01:54.005Z,0.80
2019-05-05T14:06:59.758Z,0.70
2019-05-05T14:12:04.165Z,0.80
2019-05-05T14:17:07.413Z,0.97
2019-05-05T14:23:09.767Z,0.50
2019-05-05T14:28:43.843Z,0.90
2019-05-05T14:34:11.388Z,1.10
2019-05-05T14:40:04.615Z,0.40
2019-05-05T14:44:45.043Z,0.40
2019-05-05T14:50:40.506Z,0.33
2019-05-05T14:55:45.378Z,0.77
2019-05-05T15:00:49.636Z,0.60
2019-05-05T15:07:49.446Z,0.50
2019-05-05T15:13:05.487Z,0.53
2019-05-05T15:18:10.121Z,0.37
2019-05-05T15:23:06.616Z,0.60
2019-05-05T15:28:13.957Z,0.50
2019-05-05T15:33:56.270Z,2.00
2019-05-05T15:45:43.933Z,2.57
2019-05-05T15:50:39.781Z,1.20
2019-05-05T15:55:35.783Z,1.30
2019-05-05T16:00:33.644Z,0.97
2019-05-05T16:05:29.355Z,1.10
2019-05-05T16:10:25.330Z,1.40
2019-05-05T16:15:49.301Z,0.60
2019-05-05T16:20:49.377Z,0.50
2019-05-05T16:25:47.038Z,0.53
2019-05-05T16:30:44.442Z,0.80
2019-05-05T16:35:40.641Z,0.40
2019-05-05T16:40:36.389Z,0.63
2019-05-05T16:45:34.032Z,0.50
2019-05-05T16:50:29.916Z,0.60
2019-05-05T16:55:34.514Z,0.40
2019-05-05T17:00:30.969Z,0.40
2019-05-05T17:05:27.251Z,0.60
2019-05-05T17:10:24.470Z,0.70
2019-05-05T17:15:35.218Z,0.60
2019-05-05T17:20:38.019Z,0.60
2019-05-05T17:25:34.351Z,0.70
2019-05-05T17:30:30.226Z,0.70
2019-05-05T17:35:26.103Z,2.00
2019-05-05T17:40:28.226Z,1.10
2019-05-05T17:45:49.254Z,0.93
2019-05-05T17:51:16.729Z,0.60
2019-05-05T17:56:13.530Z,0.70
2019-05-05T18:01:09.336Z,0.67
2019-05-05T18:06:14.360Z,0.90
2019-05-05T18:11:17.005Z,0.80
2019-05-05T18:16:14.009Z,0.90
2019-05-05T18:21:09.967Z,1.00
2019-05-05T18:26:05.946Z,1.13
2019-05-05T18:31:01.744Z,0.90
2019-05-05T18:35:57.579Z,1.20
2019-05-05T18:40:55.127Z,1.17
2019-05-05T18:46:01.725Z,1.10
2019-05-05T18:50:57.538Z,0.90
2019-05-05T18:55:54.388Z,1.07
2019-05-05T19:01:00.999Z,1.23
2019-05-05T19:06:24.561Z,1.30
2019-05-05T19:24:22.448Z,1.33
2019-05-05T19:25:19.616Z,0.77
2019-05-05T19:30:25.651Z,1.80
2019-05-05T19:42:24.011Z,1.57
2019-05-05T19:48:24.520Z,1.50
2019-05-05T20:00:46.756Z,1.10
2019-05-05T20:06:14.176Z,1.40
2019-05-05T20:24:57.690Z,1.60
2019-05-05T20:56:27.515Z,1.83
2019-05-05T21:02:47.696Z,1.80
2019-05-05T21:08:49.546Z,1.47
2019-05-05T21:14:14.601Z,1.00
2019-05-05T21:26:54.689Z,1.07
2019-05-05T21:32:37.610Z,1.07
2019-05-05T21:38:04.748Z,1.30
2019-05-05T21:43:45.312Z,1.10
2019-05-05T21:49:13.610Z,1.00
2019-05-05T21:55:13.916Z,1.37
2019-05-05T22:01:53.917Z,0.97
2019-05-05T22:07:33.623Z,1.03
2019-05-05T22:12:54.964Z,1.03
2019-05-05T22:18:41.392Z,1.20
2019-05-05T22:23:50.952Z,1.10
2019-05-05T22:29:24.645Z,1.37
2019-05-05T22:34:56.775Z,0.67
